createdAt,value
2022-08-26T00:00:21.622Z,19.00
2022-08-26T00:01:28.927Z,18.40
2022-08-26T00:02:22.675Z,18.70
2022-08-26T00:03:21.613Z,24.30
2022-08-26T00:04:21.621Z,17.40
2022-08-26T00:05:21.570Z,17.80
2022-08-26T00:06:21.575Z,18.60
2022-08-26T00:07:21.585Z,17.30
2022-08-26T00:08:21.569Z,18.40
2022-08-26T00:09:21.526Z,19.50
2022-08-26T00:10:21.617Z,19.80
2022-08-26T00:11:26.577Z,18.10
2022-08-26T00:12:35.892Z,17.60
2022-08-26T00:13:22.455Z,16.40
2022-08-26T00:14:21.540Z,18.90
2022-08-26T00:15:21.507Z,19.10
2022-08-26T00:16:21.519Z,18.40
2022-08-26T00:17:21.473Z,21.00
2022-08-26T00:18:22.139Z,17.30
2022-08-26T00:19:21.475Z,21.30
2022-08-26T00:20:21.437Z,19.60
2022-08-26T00:21:21.462Z,17.40
2022-08-26T00:22:21.704Z,18.90
2022-08-26T00:23:24.119Z,16.90
2022-08-26T00:24:21.469Z,17.60
2022-08-26T00:25:21.412Z,17.60
2022-08-26T00:26:21.393Z,21.50
2022-08-26T00:27:21.417Z,19.50
2022-08-26T00:28:21.566Z,19.70
2022-08-26T00:29:21.452Z,21.20
2022-08-26T00:30:22.917Z,18.60
2022-08-26T00:31:21.357Z,17.10
2022-08-26T00:32:21.285Z,22.10
2022-08-26T00:33:21.297Z,21.60
2022-08-26T00:34:21.293Z,19.90
2022-08-26T00:35:21.333Z,20.20
2022-08-26T00:36:21.264Z,20.30
2022-08-26T00:37:21.275Z,19.30
2022-08-26T00:38:21.258Z,19.70
2022-08-26T00:39:21.238Z,21.10
2022-08-26T00:40:21.352Z,23.30
2022-08-26T00:41:21.211Z,19.50
2022-08-26T00:42:21.212Z,19.90
2022-08-26T00:43:21.210Z,19.20
2022-08-26T00:44:21.210Z,20.50
2022-08-26T00:45:21.281Z,18.30
2022-08-26T00:46:21.230Z,21.80
2022-08-26T00:47:21.184Z,20.60
2022-08-26T00:48:21.232Z,17.90
2022-08-26T00:49:21.224Z,23.20
2022-08-26T00:50:21.223Z,20.70
2022-08-26T00:51:21.261Z,18.90
2022-08-26T00:52:21.281Z,21.30
2022-08-26T00:53:21.197Z,18.80
2022-08-26T00:54:21.253Z,20.30
2022-08-26T00:55:21.197Z,19.30
2022-08-26T00:56:21.317Z,19.20
2022-08-26T00:57:21.176Z,20.00
2022-08-26T00:58:21.167Z,20.30
2022-08-26T00:59:21.150Z,20.90
2022-08-26T01:00:21.157Z,19.20
2022-08-26T01:01:23.019Z,19.70
2022-08-26T01:02:21.830Z,22.00
2022-08-26T01:03:21.151Z,20.80
2022-08-26T01:04:21.139Z,18.70
2022-08-26T01:05:21.113Z,20.00
2022-08-26T01:06:21.073Z,20.30
2022-08-26T01:07:21.135Z,21.40
2022-08-26T01:08:21.099Z,18.90
2022-08-26T01:09:21.100Z,19.10
2022-08-26T01:10:21.064Z,22.00
2022-08-26T01:11:21.067Z,19.40
2022-08-26T01:12:22.350Z,20.30
2022-08-26T01:13:20.995Z,20.00
2022-08-26T01:14:20.989Z,19.40
2022-08-26T01:15:20.969Z,19.30
2022-08-26T01:16:20.998Z,21.80
2022-08-26T01:17:21.023Z,20.30
2022-08-26T01:18:20.955Z,21.10
2022-08-26T01:19:20.972Z,23.40
2022-08-26T01:20:20.930Z,20.50
2022-08-26T01:21:20.925Z,20.80
2022-08-26T01:22:22.250Z,21.50
2022-08-26T01:23:21.926Z,20.10
2022-08-26T01:24:20.913Z,21.00
2022-08-26T01:25:20.987Z,21.20
2022-08-26T01:26:20.991Z,21.10
2022-08-26T01:27:21.014Z,23.60
2022-08-26T01:28:21.024Z,21.90
2022-08-26T01:29:20.971Z,21.80
2022-08-26T01:30:20.955Z,20.40
2022-08-26T01:31:21.061Z,21.60
2022-08-26T01:32:20.910Z,22.20
2022-08-26T01:33:20.971Z,21.30
2022-08-26T01:34:20.923Z,23.10
2022-08-26T01:35:20.897Z,24.00
2022-08-26T01:36:20.916Z,20.90
2022-08-26T01:37:20.889Z,20.50
2022-08-26T01:38:20.934Z,22.30
2022-08-26T01:39:20.896Z,22.30
2022-08-26T01:40:21.012Z,22.60
2022-08-26T01:41:27.175Z,20.70
2022-08-26T01:42:21.949Z,20.90
2022-08-26T01:43:20.862Z,21.00
2022-08-26T01:44:20.898Z,20.70
2022-08-26T01:45:20.838Z,21.00
2022-08-26T01:46:20.751Z,21.70
2022-08-26T01:47:20.815Z,21.20
2022-08-26T01:48:20.832Z,20.60
2022-08-26T01:49:20.916Z,22.30
2022-08-26T01:50:27.614Z,20.20
2022-08-26T01:51:21.817Z,21.90
2022-08-26T01:52:20.786Z,22.20
2022-08-26T01:53:21.469Z,23.70
2022-08-26T01:54:20.867Z,25.10
2022-08-26T01:55:32.372Z,21.40
2022-08-26T01:56:21.683Z,22.30
2022-08-26T01:57:20.690Z,24.30
2022-08-26T01:58:20.675Z,21.60
2022-08-26T01:59:20.673Z,22.20
2022-08-26T02:00:20.706Z,22.80
2022-08-26T02:01:20.701Z,21.10
2022-08-26T02:02:20.656Z,22.50
2022-08-26T02:03:20.633Z,24.10
2022-08-26T02:04:20.680Z,22.10
2022-08-26T02:05:20.648Z,23.30
2022-08-26T02:06:20.712Z,22.50
2022-08-26T02:07:21.522Z,22.20
2022-08-26T02:08:24.909Z,20.60
2022-08-26T02:09:20.641Z,20.30
2022-08-26T02:10:20.790Z,22.50
2022-08-26T02:11:20.672Z,22.50
2022-08-26T02:12:20.650Z,26.70
2022-08-26T02:13:20.640Z,24.40
2022-08-26T02:14:20.662Z,21.10
2022-08-26T02:15:20.683Z,20.70
2022-08-26T02:16:20.715Z,21.20
2022-08-26T02:17:21.258Z,23.60
2022-08-26T02:18:20.621Z,24.20
2022-08-26T02:19:20.600Z,28.70
2022-08-26T02:20:20.591Z,21.70
2022-08-26T02:21:20.592Z,19.30
2022-08-26T02:22:20.635Z,21.70
2022-08-26T02:23:20.545Z,21.40
2022-08-26T02:24:20.589Z,24.10
2022-08-26T02:25:20.549Z,19.50
2022-08-26T02:26:20.677Z,21.10
2022-08-26T02:27:20.528Z,23.40
2022-08-26T02:28:20.514Z,22.10
2022-08-26T02:29:20.491Z,20.90
2022-08-26T02:30:20.523Z,21.30
2022-08-26T02:31:20.544Z,22.90
2022-08-26T02:32:20.558Z,24.00
2022-08-26T02:33:20.493Z,22.70
2022-08-26T02:34:20.507Z,21.30
2022-08-26T02:35:20.506Z,24.00
2022-08-26T02:36:20.475Z,24.30
2022-08-26T02:37:20.510Z,24.20
2022-08-26T02:38:20.442Z,22.30
2022-08-26T02:39:22.126Z,22.30
2022-08-26T02:40:20.487Z,22.90
2022-08-26T02:41:20.472Z,21.10
2022-08-26T02:42:20.452Z,23.30
2022-08-26T02:43:31.504Z,22.00
2022-08-26T02:44:21.414Z,23.20
2022-08-26T02:45:23.335Z,19.50
2022-08-26T02:46:21.498Z,21.50
2022-08-26T02:47:21.392Z,21.30
2022-08-26T02:48:20.316Z,21.40
2022-08-26T02:49:20.314Z,22.10
2022-08-26T02:50:20.282Z,21.60
2022-08-26T02:51:20.296Z,31.60
2022-08-26T02:52:20.265Z,20.50
2022-08-26T02:53:25.050Z,29.10
2022-08-26T02:54:22.254Z,22.50
2022-08-26T02:55:20.260Z,25.30
2022-08-26T02:56:20.256Z,21.90
2022-08-26T02:57:20.249Z,23.60
2022-08-26T02:58:20.286Z,25.60
2022-08-26T02:59:20.258Z,22.80
2022-08-26T03:00:20.327Z,23.90
2022-08-26T03:01:20.307Z,24.40
2022-08-26T03:02:20.237Z,24.00
2022-08-26T03:03:20.269Z,23.60
2022-08-26T03:04:20.196Z,27.70
2022-08-26T03:05:20.274Z,23.50
2022-08-26T03:06:20.238Z,26.10
2022-08-26T03:07:20.246Z,23.80
2022-08-26T03:08:20.308Z,26.60
2022-08-26T03:09:20.213Z,28.30
2022-08-26T03:10:20.277Z,24.00
2022-08-26T03:11:20.181Z,22.30
2022-08-26T03:12:20.227Z,24.10
2022-08-26T03:13:20.215Z,25.20
2022-08-26T03:14:20.233Z,25.80
2022-08-26T03:15:20.187Z,25.50
2022-08-26T03:16:20.244Z,20.40
2022-08-26T03:17:20.151Z,22.20
2022-08-26T03:18:20.553Z,25.40
2022-08-26T03:19:20.223Z,25.80
2022-08-26T03:20:20.169Z,25.60
2022-08-26T03:21:20.156Z,20.90
2022-08-26T03:22:20.550Z,25.00
2022-08-26T03:23:20.153Z,24.70
2022-08-26T03:24:20.172Z,26.10
2022-08-26T03:25:20.096Z,24.10
2022-08-26T03:26:20.105Z,26.40
2022-08-26T03:27:20.142Z,24.70
2022-08-26T03:28:20.119Z,23.90
2022-08-26T03:29:20.154Z,24.90
2022-08-26T03:30:20.159Z,25.00
2022-08-26T03:31:20.196Z,25.50
2022-08-26T03:32:20.049Z,23.80
2022-08-26T03:33:20.145Z,24.50
2022-08-26T03:34:20.076Z,24.50
2022-08-26T03:35:20.100Z,24.80
2022-08-26T03:36:20.035Z,24.50
2022-08-26T03:37:20.037Z,23.50
2022-08-26T03:38:20.017Z,24.00
2022-08-26T03:39:20.021Z,23.80
2022-08-26T03:40:20.274Z,25.90
2022-08-26T03:41:19.976Z,25.30
2022-08-26T03:42:21.525Z,22.70
2022-08-26T03:43:20.007Z,24.80
2022-08-26T03:44:19.990Z,22.70
2022-08-26T03:45:19.975Z,25.50
2022-08-26T03:46:20.056Z,24.80
2022-08-26T03:47:19.962Z,24.70
2022-08-26T03:48:19.932Z,29.10
2022-08-26T03:49:19.923Z,24.80
2022-08-26T03:50:22.911Z,25.70
2022-08-26T03:51:19.972Z,25.90
2022-08-26T03:52:19.944Z,27.40
2022-08-26T03:53:20.539Z,24.40
2022-08-26T03:54:19.986Z,25.40
2022-08-26T03:55:19.926Z,26.70
2022-08-26T03:56:19.913Z,26.40
2022-08-26T03:57:19.875Z,26.20
2022-08-26T03:58:19.876Z,26.60
2022-08-26T03:59:19.893Z,25.80
2022-08-26T04:00:19.855Z,23.90
2022-08-26T04:01:19.915Z,28.70
2022-08-26T04:02:19.911Z,25.20
2022-08-26T04:03:19.827Z,26.40
2022-08-26T04:04:22.733Z,27.50
2022-08-26T04:05:19.755Z,25.10
2022-08-26T04:06:19.753Z,26.10
2022-08-26T04:07:19.763Z,24.20
2022-08-26T04:08:19.723Z,25.30
2022-08-26T04:09:19.790Z,26.50
2022-08-26T04:10:20.413Z,27.50
2022-08-26T04:11:19.725Z,26.30
2022-08-26T04:12:19.824Z,26.70
2022-08-26T04:13:19.764Z,27.50
2022-08-26T04:14:20.195Z,28.10
2022-08-26T04:15:19.787Z,27.80
2022-08-26T04:16:19.798Z,26.40
2022-08-26T04:17:19.751Z,26.90
2022-08-26T04:18:20.707Z,27.00
2022-08-26T04:19:19.717Z,30.70
2022-08-26T04:20:19.717Z,27.20
2022-08-26T04:21:19.724Z,25.50
2022-08-26T04:22:24.406Z,27.20
2022-08-26T04:23:20.772Z,28.60
2022-08-26T04:24:19.710Z,25.50
2022-08-26T04:25:20.612Z,29.10
2022-08-26T04:26:19.729Z,27.80
2022-08-26T04:27:19.697Z,26.80
2022-08-26T04:28:19.688Z,27.50
2022-08-26T04:29:19.665Z,28.20
2022-08-26T04:30:19.677Z,27.60
2022-08-26T04:31:19.742Z,28.70
2022-08-26T04:32:19.645Z,29.70
2022-08-26T04:33:19.646Z,26.40
2022-08-26T04:34:20.632Z,28.30
2022-08-26T04:35:25.827Z,25.40
2022-08-26T04:36:21.638Z,23.00
2022-08-26T04:37:19.591Z,28.30
2022-08-26T04:38:19.586Z,31.70
2022-08-26T04:39:19.612Z,27.30
2022-08-26T04:40:19.637Z,29.00
2022-08-26T04:41:19.551Z,29.60
2022-08-26T04:42:25.875Z,29.50
2022-08-26T04:43:21.532Z,31.30
2022-08-26T04:44:19.539Z,28.00
2022-08-26T04:45:22.898Z,29.70
2022-08-26T04:46:19.488Z,28.10
2022-08-26T04:47:19.589Z,28.60
2022-08-26T04:48:19.494Z,31.00
2022-08-26T04:49:19.488Z,29.30
2022-08-26T04:50:19.601Z,28.00
2022-08-26T04:51:19.498Z,27.80
2022-08-26T04:52:19.555Z,29.40
2022-08-26T04:53:19.461Z,25.60
2022-08-26T04:54:19.543Z,28.80
2022-08-26T04:55:19.582Z,27.60
2022-08-26T04:56:19.440Z,27.30
2022-08-26T04:57:19.459Z,28.10
2022-08-26T04:58:19.419Z,25.90
2022-08-26T04:59:19.453Z,25.40
2022-08-26T05:00:19.425Z,27.20
2022-08-26T05:01:19.526Z,25.20
2022-08-26T05:02:20.220Z,29.80
2022-08-26T05:03:19.365Z,27.50
2022-08-26T05:04:19.384Z,30.90
2022-08-26T05:05:19.324Z,26.10
2022-08-26T05:06:19.329Z,27.50
2022-08-26T05:07:19.332Z,28.70
2022-08-26T05:08:19.318Z,28.10
2022-08-26T05:09:19.278Z,28.20
2022-08-26T05:10:19.393Z,27.50
2022-08-26T05:11:19.352Z,28.50
2022-08-26T05:12:19.289Z,32.30
2022-08-26T05:13:20.554Z,23.80
2022-08-26T05:14:19.227Z,34.20
2022-08-26T05:15:19.247Z,27.80
2022-08-26T05:16:19.336Z,28.90
2022-08-26T05:17:19.344Z,27.50
2022-08-26T05:18:19.997Z,30.70
2022-08-26T05:19:19.620Z,28.60
2022-08-26T05:20:22.644Z,27.10
2022-08-26T05:21:21.236Z,29.10
2022-08-26T05:22:19.279Z,26.50
2022-08-26T05:23:19.252Z,27.70
2022-08-26T05:24:19.265Z,31.50
2022-08-26T05:25:19.241Z,27.30
2022-08-26T05:26:23.066Z,26.90
2022-08-26T05:27:19.285Z,27.40
2022-08-26T05:28:19.250Z,28.70
2022-08-26T05:29:19.234Z,31.20
2022-08-26T05:30:19.244Z,31.40
2022-08-26T05:31:19.232Z,26.20
2022-08-26T05:32:19.169Z,24.50
2022-08-26T05:33:19.294Z,29.10
2022-08-26T05:34:19.218Z,30.70
2022-08-26T05:35:19.220Z,28.30
2022-08-26T05:36:19.227Z,27.30
2022-08-26T05:37:19.134Z,30.50
2022-08-26T05:38:19.649Z,29.20
2022-08-26T05:39:19.152Z,29.90
2022-08-26T05:40:19.190Z,29.00
2022-08-26T05:41:19.189Z,28.90
2022-08-26T05:42:19.113Z,33.20
2022-08-26T05:43:19.161Z,30.30
2022-08-26T05:44:19.100Z,26.10
2022-08-26T05:45:19.086Z,25.80
2022-08-26T05:46:20.105Z,26.50
2022-08-26T05:47:19.095Z,24.80
2022-08-26T05:48:19.085Z,28.20
2022-08-26T05:49:20.119Z,27.60
2022-08-26T05:50:19.073Z,26.20
2022-08-26T05:51:22.791Z,27.10
2022-08-26T05:52:20.062Z,28.10
2022-08-26T05:53:19.058Z,28.30
2022-08-26T05:54:22.011Z,26.90
2022-08-26T05:55:19.081Z,29.80
2022-08-26T05:56:19.032Z,27.30
2022-08-26T05:57:19.073Z,26.40
2022-08-26T05:58:19.014Z,29.30
2022-08-26T05:59:24.147Z,27.60
2022-08-26T06:00:20.021Z,29.80
2022-08-26T06:01:19.001Z,28.10
2022-08-26T06:02:18.953Z,27.50
2022-08-26T06:03:19.002Z,28.70
2022-08-26T06:04:18.907Z,30.30
2022-08-26T06:05:18.902Z,29.10
2022-08-26T06:06:20.147Z,28.00
2022-08-26T06:07:19.856Z,26.20
2022-08-26T06:08:19.328Z,31.30
2022-08-26T06:09:18.838Z,27.40
2022-08-26T06:10:32.098Z,31.90
2022-08-26T06:11:20.835Z,28.80
2022-08-26T06:12:18.867Z,26.80
2022-08-26T06:13:18.841Z,25.70
2022-08-26T06:14:18.797Z,27.00
2022-08-26T06:15:18.883Z,27.30
2022-08-26T06:16:18.854Z,25.10
2022-08-26T06:17:18.803Z,25.90
2022-08-26T06:18:18.787Z,26.60
2022-08-26T06:19:18.780Z,25.90
2022-08-26T06:20:18.764Z,30.90
2022-08-26T06:21:19.670Z,27.70
2022-08-26T06:22:23.342Z,27.00
2022-08-26T06:23:20.765Z,28.40
2022-08-26T06:24:18.760Z,29.90
2022-08-26T06:25:18.786Z,30.70
2022-08-26T06:26:18.871Z,26.20
2022-08-26T06:27:18.795Z,26.30
2022-08-26T06:28:18.781Z,28.30
2022-08-26T06:29:24.327Z,27.40
2022-08-26T06:30:19.714Z,30.50
2022-08-26T06:31:18.898Z,26.80
2022-08-26T06:32:18.807Z,28.70
2022-08-26T06:33:18.742Z,26.90
2022-08-26T06:34:18.780Z,28.00
2022-08-26T06:35:18.753Z,27.90
2022-08-26T06:36:18.790Z,32.10
2022-08-26T06:37:18.754Z,28.70
2022-08-26T06:38:18.758Z,27.70
2022-08-26T06:39:18.696Z,27.90
2022-08-26T06:40:18.748Z,27.00
2022-08-26T06:41:18.723Z,29.80
2022-08-26T06:42:18.757Z,30.10
2022-08-26T06:43:18.755Z,29.20
2022-08-26T06:44:18.691Z,26.40
2022-08-26T06:45:18.744Z,28.30
2022-08-26T06:46:18.623Z,28.50
2022-08-26T06:47:19.840Z,25.10
2022-08-26T06:48:18.657Z,23.20
2022-08-26T06:49:25.739Z,25.30
2022-08-26T06:50:19.662Z,25.20
2022-08-26T06:51:18.617Z,25.30
2022-08-26T06:52:22.944Z,25.30
2022-08-26T06:53:20.663Z,20.80
2022-08-26T06:54:18.580Z,23.20
2022-08-26T06:55:18.617Z,25.40
2022-08-26T06:56:18.584Z,23.60
2022-08-26T06:57:18.606Z,21.50
2022-08-26T06:58:18.612Z,21.20
2022-08-26T06:59:18.558Z,25.10
2022-08-26T07:00:18.601Z,22.60
2022-08-26T07:01:18.570Z,23.70
2022-08-26T07:02:18.597Z,24.40
2022-08-26T07:03:18.603Z,25.40
2022-08-26T07:04:22.098Z,23.50
2022-08-26T07:05:18.520Z,22.40
2022-08-26T07:06:18.559Z,23.80
2022-08-26T07:07:18.530Z,22.30
2022-08-26T07:08:18.629Z,25.30
2022-08-26T07:09:18.499Z,23.10
2022-08-26T07:10:18.494Z,24.50
2022-08-26T07:11:18.517Z,22.70
2022-08-26T07:12:18.481Z,23.40
2022-08-26T07:13:29.920Z,27.10
2022-08-26T07:14:21.630Z,23.90
2022-08-26T07:15:18.383Z,26.10
2022-08-26T07:16:19.433Z,25.20
2022-08-26T07:17:18.362Z,26.40
2022-08-26T07:18:18.402Z,27.10
2022-08-26T07:19:18.378Z,27.50
2022-08-26T07:20:19.397Z,27.90
2022-08-26T07:21:18.426Z,25.90
2022-08-26T07:22:18.345Z,27.90
2022-08-26T07:23:18.336Z,26.50
2022-08-26T07:24:18.351Z,25.80
2022-08-26T07:25:19.244Z,23.80
2022-08-26T07:26:18.275Z,28.40
2022-08-26T07:27:18.329Z,25.30
2022-08-26T07:28:18.297Z,28.40
2022-08-26T07:29:18.327Z,26.10
2022-08-26T07:30:18.273Z,23.70
2022-08-26T07:31:18.372Z,25.10
2022-08-26T07:32:18.266Z,27.70
2022-08-26T07:33:18.285Z,25.50
2022-08-26T07:34:18.356Z,24.80
2022-08-26T07:35:18.336Z,27.30
2022-08-26T07:36:18.392Z,25.80
2022-08-26T07:37:18.352Z,27.70
2022-08-26T07:38:18.399Z,24.10
2022-08-26T07:39:18.351Z,26.50
2022-08-26T07:40:18.432Z,24.50
2022-08-26T07:41:18.346Z,27.70
2022-08-26T07:42:18.506Z,29.30
2022-08-26T07:43:18.270Z,24.90
2022-08-26T07:44:18.300Z,28.90
2022-08-26T07:45:18.346Z,24.20
2022-08-26T07:46:18.179Z,29.70
2022-08-26T07:47:25.859Z,28.20
2022-08-26T07:48:19.163Z,25.30
2022-08-26T07:49:18.271Z,31.00
2022-08-26T07:50:18.336Z,26.80
2022-08-26T07:51:18.249Z,29.10
2022-08-26T07:52:20.664Z,27.20
2022-08-26T07:53:19.435Z,26.50
2022-08-26T07:54:18.290Z,25.70
2022-08-26T07:55:18.161Z,30.20
2022-08-26T07:56:18.291Z,22.70
2022-08-26T07:57:19.164Z,25.60
2022-08-26T07:58:18.155Z,25.50
2022-08-26T07:59:18.172Z,22.30
2022-08-26T08:00:18.205Z,28.60
2022-08-26T08:01:18.283Z,23.60
2022-08-26T08:02:18.137Z,23.80
2022-08-26T08:03:18.138Z,30.00
2022-08-26T08:04:18.427Z,26.00
2022-08-26T08:05:18.214Z,29.50
2022-08-26T08:06:18.142Z,27.30
2022-08-26T08:07:18.109Z,27.00
2022-08-26T08:08:27.077Z,30.20
2022-08-26T08:09:19.158Z,27.40
2022-08-26T08:10:18.055Z,29.00
2022-08-26T08:11:18.106Z,29.30
2022-08-26T08:12:18.094Z,28.60
2022-08-26T08:13:18.091Z,27.40
2022-08-26T08:14:18.045Z,25.10
2022-08-26T08:15:18.078Z,26.20
2022-08-26T08:16:18.058Z,26.70
2022-08-26T08:17:18.105Z,30.00
2022-08-26T08:18:18.044Z,27.30
2022-08-26T08:19:18.051Z,27.10
2022-08-26T08:20:17.994Z,29.50
2022-08-26T08:21:21.924Z,24.50
2022-08-26T08:22:20.032Z,27.70
2022-08-26T08:23:17.996Z,21.60
2022-08-26T08:24:18.010Z,25.00
2022-08-26T08:25:18.011Z,24.40
2022-08-26T08:26:18.001Z,21.00
2022-08-26T08:27:22.829Z,25.90
2022-08-26T08:28:18.988Z,23.40
2022-08-26T08:29:18.043Z,25.10
2022-08-26T08:30:20.895Z,26.50
2022-08-26T08:31:19.213Z,26.00
2022-08-26T08:32:18.882Z,24.30
2022-08-26T08:33:17.839Z,27.60
2022-08-26T08:34:18.221Z,24.80
2022-08-26T08:35:17.865Z,23.30
2022-08-26T08:36:18.602Z,22.30
2022-08-26T08:37:17.798Z,22.50
2022-08-26T08:38:17.807Z,24.10
2022-08-26T08:39:17.823Z,24.40
2022-08-26T08:40:17.863Z,25.40
2022-08-26T08:41:17.792Z,29.50
2022-08-26T08:42:17.764Z,23.20
2022-08-26T08:43:18.381Z,24.00
2022-08-26T08:44:17.802Z,22.90
2022-08-26T08:45:18.382Z,24.70
2022-08-26T08:46:17.812Z,21.40
2022-08-26T08:47:17.830Z,24.90
2022-08-26T08:48:17.800Z,24.20
2022-08-26T08:49:17.855Z,27.10
2022-08-26T08:50:17.815Z,26.90
2022-08-26T08:51:17.776Z,23.30
2022-08-26T08:52:17.768Z,19.40
2022-08-26T08:53:17.792Z,21.10
2022-08-26T08:54:17.788Z,22.60
2022-08-26T08:55:18.229Z,21.30
2022-08-26T08:56:18.759Z,20.80
2022-08-26T08:57:17.776Z,21.40
2022-08-26T08:58:19.150Z,17.40
2022-08-26T08:59:17.958Z,21.50
2022-08-26T09:00:17.851Z,20.80
2022-08-26T09:01:17.784Z,21.30
2022-08-26T09:02:17.744Z,22.50
2022-08-26T09:03:17.672Z,26.10
2022-08-26T09:04:17.678Z,21.80
2022-08-26T09:05:17.704Z,18.10
2022-08-26T09:06:17.697Z,21.90
2022-08-26T09:07:17.656Z,22.60
2022-08-26T09:08:19.830Z,24.60
2022-08-26T09:09:17.654Z,18.70
2022-08-26T09:10:17.750Z,22.30
2022-08-26T09:11:17.668Z,21.60
2022-08-26T09:12:17.636Z,25.00
2022-08-26T09:13:24.867Z,25.00
2022-08-26T09:14:18.631Z,22.80
2022-08-26T09:15:17.663Z,21.20
2022-08-26T09:16:19.123Z,21.60
2022-08-26T09:17:17.586Z,23.50
2022-08-26T09:18:17.629Z,20.10
2022-08-26T09:19:18.799Z,21.90
2022-08-26T09:20:17.700Z,22.30
2022-08-26T09:21:17.909Z,26.70
2022-08-26T09:22:17.665Z,22.10
2022-08-26T09:23:18.143Z,23.90
2022-08-26T09:24:18.132Z,22.10
2022-08-26T09:25:18.626Z,21.30
2022-08-26T09:26:17.577Z,21.70
2022-08-26T09:27:17.508Z,19.50
2022-08-26T09:28:17.568Z,20.10
2022-08-26T09:29:17.573Z,24.60
2022-08-26T09:30:17.631Z,21.60
2022-08-26T09:31:17.579Z,19.70
2022-08-26T09:32:17.473Z,24.30
2022-08-26T09:33:17.533Z,19.00
2022-08-26T09:34:17.871Z,17.30
2022-08-26T09:35:17.472Z,26.00
2022-08-26T09:36:17.461Z,20.10
2022-08-26T09:37:17.516Z,17.70
2022-08-26T09:38:17.453Z,20.80
2022-08-26T09:39:17.442Z,21.00
2022-08-26T09:40:17.583Z,17.20
2022-08-26T09:41:17.458Z,19.60
2022-08-26T09:42:17.463Z,18.60
2022-08-26T09:43:21.997Z,29.20
2022-08-26T09:44:18.427Z,24.20
2022-08-26T09:45:17.396Z,21.90
2022-08-26T09:46:17.417Z,21.90
2022-08-26T09:47:17.621Z,18.70
2022-08-26T09:48:17.303Z,24.40
2022-08-26T09:49:17.336Z,19.00
2022-08-26T09:50:17.284Z,16.00
2022-08-26T09:51:17.276Z,16.80
2022-08-26T09:52:17.298Z,17.80
2022-08-26T09:53:20.997Z,21.30
2022-08-26T09:54:20.664Z,14.40
2022-08-26T09:55:17.298Z,19.90
2022-08-26T09:56:17.327Z,16.60
2022-08-26T09:57:17.288Z,16.80
2022-08-26T09:58:17.334Z,15.70
2022-08-26T09:59:18.953Z,16.60
2022-08-26T10:00:17.235Z,17.50
2022-08-26T10:01:17.385Z,17.60
2022-08-26T10:02:17.213Z,18.60
2022-08-26T10:03:17.491Z,13.00
2022-08-26T10:04:17.342Z,15.30
2022-08-26T10:05:17.228Z,13.70
2022-08-26T10:06:17.303Z,13.90
2022-08-26T10:07:17.259Z,21.00
2022-08-26T10:08:17.336Z,18.30
2022-08-26T10:09:17.246Z,17.00
2022-08-26T10:10:17.275Z,19.30
2022-08-26T10:11:17.235Z,16.70
2022-08-26T10:12:17.232Z,19.20
2022-08-26T10:13:17.184Z,20.40
2022-08-26T10:14:17.250Z,16.00
2022-08-26T10:15:17.224Z,17.40
2022-08-26T10:16:17.259Z,18.80
2022-08-26T10:17:17.176Z,16.20
2022-08-26T10:18:17.162Z,18.90
2022-08-26T10:19:17.210Z,15.20
2022-08-26T10:20:23.177Z,20.60
2022-08-26T10:21:18.214Z,18.30
2022-08-26T10:22:17.130Z,13.60
2022-08-26T10:23:17.113Z,18.30
2022-08-26T10:24:18.154Z,21.30
2022-08-26T10:25:17.107Z,19.00
2022-08-26T10:26:17.215Z,19.50
2022-08-26T10:27:17.139Z,21.20
2022-08-26T10:28:17.159Z,20.00
2022-08-26T10:29:17.171Z,16.60
2022-08-26T10:30:17.050Z,19.70
2022-08-26T10:31:17.138Z,17.50
2022-08-26T10:32:17.098Z,17.10
2022-08-26T10:33:18.164Z,19.30
2022-08-26T10:34:17.078Z,18.90
2022-08-26T10:35:17.127Z,14.20
2022-08-26T10:36:17.044Z,14.80
2022-08-26T10:37:17.092Z,15.00
2022-08-26T10:38:17.015Z,18.00
2022-08-26T10:39:17.010Z,15.10
2022-08-26T10:40:17.058Z,18.60
2022-08-26T10:41:18.218Z,13.40
2022-08-26T10:42:17.013Z,17.00
2022-08-26T10:43:16.990Z,16.70
2022-08-26T10:44:16.960Z,15.20
2022-08-26T10:45:16.990Z,17.30
2022-08-26T10:46:17.087Z,14.80
2022-08-26T10:47:16.887Z,18.30
2022-08-26T10:48:16.872Z,12.70
2022-08-26T10:49:16.910Z,10.30
2022-08-26T10:50:18.171Z,11.70
2022-08-26T10:51:16.897Z,14.50
2022-08-26T10:52:16.917Z,13.10
2022-08-26T10:53:16.850Z,9.70
2022-08-26T10:54:16.862Z,11.50
2022-08-26T10:55:16.840Z,13.90
2022-08-26T10:56:19.171Z,10.30
2022-08-26T10:57:16.833Z,12.90
2022-08-26T10:58:26.120Z,10.00
2022-08-26T10:59:17.786Z,9.20
2022-08-26T11:00:17.788Z,12.10
2022-08-26T11:01:16.968Z,11.10
2022-08-26T11:02:21.547Z,10.40
2022-08-26T11:03:22.415Z,15.40
2022-08-26T11:04:17.806Z,13.60
2022-08-26T11:05:16.878Z,13.70
2022-08-26T11:06:17.583Z,12.60
2022-08-26T11:07:16.848Z,11.80
2022-08-26T11:08:16.833Z,9.40
2022-08-26T11:09:16.954Z,12.40
2022-08-26T11:10:16.904Z,13.00
2022-08-26T11:11:16.860Z,13.40
2022-08-26T11:12:16.868Z,9.80
2022-08-26T11:13:16.808Z,10.80
2022-08-26T11:14:16.803Z,9.90
2022-08-26T11:15:17.711Z,11.20
2022-08-26T11:16:16.837Z,14.30
2022-08-26T11:17:16.832Z,13.40
2022-08-26T11:18:16.804Z,13.90
2022-08-26T11:19:16.790Z,11.20
2022-08-26T11:20:16.834Z,13.00
2022-08-26T11:21:16.747Z,12.80
2022-08-26T11:22:17.842Z,13.70
2022-08-26T11:23:16.772Z,9.10
2022-08-26T11:24:16.811Z,9.20
2022-08-26T11:25:18.256Z,10.40
2022-08-26T11:26:35.679Z,14.20
2022-08-26T11:27:17.649Z,12.60
2022-08-26T11:28:16.774Z,12.70
2022-08-26T11:29:16.688Z,14.00
2022-08-26T11:30:18.415Z,13.40
2022-08-26T11:31:16.779Z,15.10
2022-08-26T11:32:16.668Z,12.50
2022-08-26T11:33:16.781Z,13.50
2022-08-26T11:34:16.685Z,13.50
2022-08-26T11:35:16.655Z,12.10
2022-08-26T11:36:16.647Z,11.50
2022-08-26T11:37:16.701Z,13.40
2022-08-26T11:38:16.650Z,11.30
2022-08-26T11:39:16.634Z,10.40
2022-08-26T11:40:16.704Z,13.40
2022-08-26T11:41:16.620Z,14.20
2022-08-26T11:42:16.675Z,10.70
2022-08-26T11:43:16.704Z,11.00
2022-08-26T11:44:16.704Z,9.90
2022-08-26T11:45:16.501Z,11.70
2022-08-26T11:46:16.574Z,9.10
2022-08-26T11:47:16.544Z,9.90
2022-08-26T11:48:16.455Z,11.00
2022-08-26T11:49:16.567Z,8.10
2022-08-26T11:50:16.452Z,9.30
2022-08-26T11:51:16.436Z,9.80
2022-08-26T11:52:16.458Z,14.00
2022-08-26T11:53:16.503Z,9.60
2022-08-26T11:54:16.499Z,10.80
2022-08-26T11:55:16.468Z,11.00
2022-08-26T11:56:16.438Z,12.60
2022-08-26T11:57:16.435Z,10.70
2022-08-26T11:58:16.441Z,11.40
2022-08-26T11:59:16.400Z,9.80
2022-08-26T12:00:20.496Z,10.00
2022-08-26T12:01:18.436Z,10.90
2022-08-26T12:02:16.435Z,11.40
2022-08-26T12:03:16.462Z,8.50
2022-08-26T12:04:16.608Z,12.00
2022-08-26T12:05:16.559Z,10.20
2022-08-26T12:06:16.593Z,9.30
2022-08-26T12:07:16.508Z,9.80
2022-08-26T12:08:16.355Z,10.10
2022-08-26T12:09:16.444Z,11.50
2022-08-26T12:10:16.361Z,9.40
2022-08-26T12:11:16.457Z,9.50
2022-08-26T12:12:16.480Z,11.50
2022-08-26T12:13:16.421Z,10.20
2022-08-26T12:14:16.414Z,8.20
2022-08-26T12:15:16.463Z,11.00
2022-08-26T12:16:16.380Z,9.60
2022-08-26T12:17:16.417Z,11.00
2022-08-26T12:18:16.416Z,9.50
2022-08-26T12:19:16.421Z,10.30
2022-08-26T12:20:16.460Z,10.10
2022-08-26T12:21:16.440Z,9.70
2022-08-26T12:22:16.356Z,9.10
2022-08-26T12:23:16.357Z,9.60
2022-08-26T12:24:16.383Z,13.80
2022-08-26T12:25:16.331Z,16.80
2022-08-26T12:26:16.474Z,14.20
2022-08-26T12:27:16.331Z,14.60
2022-08-26T12:28:16.360Z,19.20
2022-08-26T12:29:26.604Z,13.10
2022-08-26T12:30:19.258Z,15.40
2022-08-26T12:31:16.399Z,13.30
2022-08-26T12:32:16.337Z,11.00
2022-08-26T12:33:22.421Z,13.60
2022-08-26T12:34:17.878Z,12.60
2022-08-26T12:35:16.355Z,20.90
2022-08-26T12:36:16.211Z,12.90
2022-08-26T12:37:16.260Z,17.40
2022-08-26T12:38:16.227Z,12.30
2022-08-26T12:39:16.241Z,17.50
2022-08-26T12:40:16.249Z,15.20
2022-08-26T12:41:16.155Z,14.80
2022-08-26T12:42:16.246Z,13.00
2022-08-26T12:43:16.213Z,11.50
2022-08-26T12:44:16.224Z,15.80
2022-08-26T12:45:16.209Z,28.70
2022-08-26T12:46:16.091Z,24.80
2022-08-26T12:47:16.272Z,18.50
2022-08-26T12:48:17.172Z,15.70
2022-08-26T12:49:16.056Z,13.40
2022-08-26T12:50:16.076Z,12.90
2022-08-26T12:51:16.069Z,12.50
2022-08-26T12:52:16.076Z,16.40
2022-08-26T12:53:16.065Z,14.90